Station History

Weather Underground - logo

Station Historical Data
Daily Summary for December 5, 2017 Units:  English    Metric   Both
« Previous Day
Next Day »
Daily Weekly Monthly Yearly Custom
  High: Low: Average:
Temperature: 58.7 °F 32.8 °F 42.8 °F
Dew Point: 43.3 °F 31.1 °F 36.8 °F
Humidity: 95 % 52 % 81 %
Wind Speed: 3.5 mph 0.0 mph 0.5 mph
Wind Gust: 3.5 mph - -
Wind:- - South
Pressure: 30.34 in 30.22 in -
Precipitation: 0.01 in    
Historical Graphs
 
 
Tabular Data for December 5, 2017
Time Temperature Dew Point Pressure Wind Wind Speed Wind Gust Humidity Rainfall Rate (Hourly)
00:04 36.7 °F 34.6 °F 30.22 in Calm     92 % 0.00 in
00:09 36.7 °F 34.6 °F 30.22 in Calm     92 % 0.00 in
00:14 36.7 °F 34.6 °F 30.22 in Calm     92 % 0.00 in
00:19 36.6 °F 34.5 °F 30.22 in Calm     92 % 0.00 in
00:24 36.6 °F 34.5 °F 30.23 in Calm     92 % 0.00 in
00:29 36.6 °F 34.8 °F 30.23 in Calm     93 % 0.00 in
00:34 36.7 °F 34.9 °F 30.23 in Calm     93 % 0.00 in
00:39 36.9 °F 35.1 °F 30.23 in Calm     93 % 0.00 in
00:44 37.1 °F 35.3 °F 30.23 in Calm     93 % 0.00 in
00:49 37.3 °F 35.5 °F 30.23 in East 1.2 mph 1.2 mph 93 % 0.00 in
00:54 37.5 °F 35.4 °F 30.23 in Calm     92 % 0.00 in
00:59 37.6 °F 35.5 °F 30.24 in East 1.2 mph   92 % 0.00 in
01:04 37.8 °F 35.7 °F 30.24 in Calm     92 % 0.00 in
01:09 37.8 °F 35.7 °F 30.24 in Calm     92 % 0.00 in
01:14 37.8 °F 35.4 °F 30.24 in Calm     91 % 0.00 in
01:19 37.8 °F 35.4 °F 30.24 in Calm     91 % 0.00 in
01:24 37.7 °F 35.3 °F 30.23 in Calm     91 % 0.00 in
01:29 37.8 °F 35.4 °F 30.23 in East 1.2 mph   91 % 0.00 in
01:34 37.9 °F 35.8 °F 30.24 in Calm     92 % 0.00 in
01:39 37.8 °F 35.4 °F 30.24 in Calm     91 % 0.00 in
01:44 37.8 °F 35.4 °F 30.24 in Calm     91 % 0.00 in
01:49 37.8 °F 35.7 °F 30.24 in Calm     92 % 0.00 in
01:54 38.0 °F 35.9 °F 30.24 in Calm     92 % 0.00 in
01:59 37.7 °F 35.0 °F 30.24 in Calm     90 % 0.00 in
02:04 37.2 °F 34.8 °F 30.24 in Calm     91 % 0.00 in
02:09 37.0 °F 34.6 °F 30.25 in Calm     91 % 0.00 in
02:14 36.8 °F 34.4 °F 30.24 in Calm     91 % 0.00 in
02:19 36.5 °F 34.4 °F 30.24 in East 1.2 mph 1.2 mph 92 % 0.00 in
02:24 36.2 °F 33.8 °F 30.25 in Calm     91 % 0.00 in
02:29 35.9 °F 33.8 °F 30.24 in East 1.2 mph   92 % 0.00 in
02:34 35.8 °F 33.7 °F 30.24 in Calm     92 % 0.00 in
02:39 35.6 °F 33.5 °F 30.24 in Calm     92 % 0.00 in
02:44 35.4 °F 33.6 °F 30.24 in Calm     93 % 0.00 in
02:49 35.3 °F 33.5 °F 30.24 in East 1.2 mph   93 % 0.00 in
02:54 35.1 °F 33.3 °F 30.24 in Calm     93 % 0.00 in
02:59 35.1 °F 33.3 °F 30.24 in Calm     93 % 0.00 in
03:04 35.0 °F 33.2 °F 30.24 in East 1.0 mph   93 % 0.00 in
03:09 34.9 °F 33.1 °F 30.24 in Calm     93 % 0.00 in
03:14 34.9 °F 33.1 °F 30.24 in Calm     93 % 0.00 in
03:18 34.8 °F 33.0 °F 30.24 in Calm     93 % 0.00 in
03:23 34.8 °F 33.0 °F 30.24 in Calm     93 % 0.00 in
03:28 34.8 °F 33.0 °F 30.24 in East 1.0 mph   93 % 0.00 in
03:33 34.7 °F 32.9 °F 30.25 in Calm     93 % 0.00 in
03:38 34.9 °F 33.3 °F 30.25 in Calm     94 % 0.00 in
03:43 35.1 °F 33.5 °F 30.24 in East 1.2 mph   94 % 0.00 in
03:45 35.1 °F 33.5 °F 30.24 in East 1.2 mph 1.2 mph 94 % 0.00 in
03:50 35.2 °F 33.4 °F 30.24 in Calm     93 % 0.00 in
03:55 35.2 °F 33.4 °F 30.25 in Calm     93 % 0.00 in
04:00 35.0 °F 33.2 °F 30.25 in Calm     93 % 0.00 in
04:05 34.5 °F 32.4 °F 30.25 in Calm     92 % 0.00 in
04:10 34.2 °F 32.1 °F 30.26 in East 1.2 mph 1.2 mph 92 % 0.00 in
04:15 34.1 °F 32.3 °F 30.26 in Calm     93 % 0.00 in
04:20 34.0 °F 32.2 °F 30.25 in Calm     93 % 0.00 in
04:25 33.9 °F 32.1 °F 30.26 in East 1.2 mph   93 % 0.00 in
04:30 33.9 °F 32.4 °F 30.26 in Calm     94 % 0.00 in
04:35 33.8 °F 32.3 °F 30.26 in Calm     94 % 0.00 in
04:40 33.8 °F 32.3 °F 30.26 in Calm     94 % 0.00 in
04:45 33.8 °F 32.3 °F 30.26 in Calm     94 % 0.00 in
04:50 33.7 °F 32.2 °F 30.26 in Calm     94 % 0.00 in
04:55 33.8 °F 32.3 °F 30.26 in Calm     94 % 0.00 in
05:00 33.6 °F 32.1 °F 30.26 in Calm     94 % 0.00 in
05:05 33.4 °F 31.9 °F 30.26 in Calm     94 % 0.00 in
05:10 33.2 °F 31.7 °F 30.26 in Calm     94 % 0.00 in
05:15 33.1 °F 31.6 °F 30.26 in Calm     94 % 0.00 in
05:16 33.2 °F 31.7 °F 30.26 in Calm     94 % 0.00 in
05:21 33.1 °F 31.6 °F 30.26 in Calm     94 % 0.00 in
05:26 33.1 °F 31.6 °F 30.26 in Calm     94 % 0.00 in
05:31 33.1 °F 31.6 °F 30.26 in East 1.2 mph 1.2 mph 94 % 0.00 in
05:36 33.2 °F 31.7 °F 30.26 in Calm     94 % 0.00 in
05:41 33.3 °F 31.8 °F 30.26 in East 1.2 mph   94 % 0.00 in
05:46 33.4 °F 31.9 °F 30.26 in East 1.2 mph   94 % 0.00 in
05:51 33.7 °F 32.2 °F 30.26 in Calm     94 % 0.00 in
05:56 33.8 °F 32.3 °F 30.26 in Calm     94 % 0.00 in
06:01 33.7 °F 32.2 °F 30.26 in Calm     94 % 0.00 in
06:06 33.8 °F 32.3 °F 30.26 in Calm     94 % 0.00 in
06:11 33.7 °F 32.2 °F 30.27 in Calm     94 % 0.00 in
06:16 33.8 °F 32.3 °F 30.27 in Calm     94 % 0.00 in
06:21 33.7 °F 32.2 °F 30.27 in Calm     94 % 0.00 in
06:26 33.8 °F 32.3 °F 30.27 in Calm     94 % 0.00 in
06:31 34.0 °F 32.5 °F 30.27 in Calm     94 % 0.00 in
06:36 33.7 °F 32.2 °F 30.28 in Calm     94 % 0.00 in
06:41 33.6 °F 31.8 °F 30.28 in Calm     93 % 0.00 in
06:46 33.6 °F 32.1 °F 30.28 in Calm     94 % 0.00 in
06:51 33.6 °F 32.1 °F 30.28 in Calm     94 % 0.00 in
06:56 33.5 °F 32.0 °F 30.29 in Calm     94 % 0.00 in
07:01 33.3 °F 31.5 °F 30.29 in Calm     93 % 0.00 in
07:06 32.9 °F 31.1 °F 30.30 in Calm     93 % 0.00 in
07:11 33.0 °F 31.2 °F 30.29 in Calm     93 % 0.00 in
07:16 32.9 °F 31.1 °F 30.30 in Calm     93 % 0.00 in
07:21 32.8 °F 31.3 °F 30.29 in East 1.2 mph   94 % 0.00 in
07:26 33.2 °F 31.7 °F 30.30 in East 1.2 mph 1.2 mph 94 % 0.00 in
07:31 33.2 °F 31.7 °F 30.30 in Calm     94 % 0.00 in
07:36 33.5 °F 32.0 °F 30.29 in Calm     94 % 0.00 in
07:41 34.1 °F 32.6 °F 30.30 in Calm     94 % 0.00 in
07:46 34.9 °F 33.6 °F 30.29 in Calm     95 % 0.00 in
07:51 35.8 °F 34.5 °F 30.30 in Calm     95 % 0.00 in
07:56 37.0 °F 35.7 °F 30.30 in East 1.2 mph 1.2 mph 95 % 0.00 in
08:01 37.8 °F 36.2 °F 30.29 in Calm     94 % 0.00 in
08:06 38.9 °F 36.8 °F 30.30 in Calm     92 % 0.00 in
08:11 39.5 °F 36.5 °F 30.30 in Calm     89 % 0.00 in
08:16 39.2 °F 36.2 °F 30.31 in Calm     89 % 0.01 in
08:21 40.2 °F 37.5 °F 30.31 in Calm     90 % 0.01 in
08:26 40.3 °F 37.0 °F 30.31 in Calm     88 % 0.01 in
08:31 40.4 °F 37.1 °F 30.32 in WNW 1.2 mph   88 % 0.01 in
08:36 40.7 °F 37.7 °F 30.31 in West 1.2 mph 1.2 mph 89 % 0.01 in
08:41 40.9 °F 37.6 °F 30.32 in West 1.2 mph   88 % 0.01 in
08:47 41.2 °F 37.9 °F 30.32 in West 1.2 mph 1.2 mph 88 % 0.01 in
08:52 41.5 °F 37.6 °F 30.32 in WNW 1.2 mph 1.2 mph 86 % 0.01 in
08:57 41.9 °F 38.0 °F 30.32 in NW 1.2 mph 1.2 mph 86 % 0.01 in
09:02 42.6 °F 38.7 °F 30.32 in Calm     86 % 0.01 in
09:07 43.6 °F 39.7 °F 30.33 in SSE 1.2 mph 1.2 mph 86 % 0.01 in
09:12 44.6 °F 39.8 °F 30.33 in SE 3.5 mph 3.5 mph 83 % 0.00 in
09:17 45.0 °F 39.5 °F 30.33 in SE 3.5 mph 3.5 mph 81 % 0.00 in
09:22 45.1 °F 39.3 °F 30.33 in South 3.5 mph 3.5 mph 80 % 0.00 in
09:27 45.3 °F 39.2 °F 30.34 in SSW 1.2 mph 1.2 mph 79 % 0.00 in
09:32 45.6 °F 38.8 °F 30.33 in SE 3.5 mph 3.5 mph 77 % 0.00 in
09:37 45.7 °F 38.6 °F 30.33 in SSW 1.2 mph 1.2 mph 76 % 0.00 in
09:47 46.4 °F 39.2 °F 30.33 in Calm     76 % 0.00 in
09:52 46.7 °F 39.5 °F 30.34 in South 1.2 mph 1.2 mph 76 % 0.00 in
09:57 47.1 °F 39.2 °F 30.33 in SW 1.0 mph 1.0 mph 74 % 0.00 in
10:02 47.5 °F 39.3 °F 30.33 in SSE 1.2 mph 1.2 mph 73 % 0.00 in
10:07 47.7 °F 39.5 °F 30.33 in ENE 2.0 mph 2.0 mph 73 % 0.00 in
10:12 47.9 °F 39.7 °F 30.32 in NE 2.3 mph 2.3 mph 73 % 0.00 in
10:17 48.4 °F 39.8 °F 30.33 in South 1.2 mph 1.2 mph 72 % 0.00 in
10:22 48.7 °F 40.1 °F 30.32 in SSE 1.2 mph 1.2 mph 72 % 0.00 in
10:27 49.2 °F 40.2 °F 30.32 in Calm     71 % 0.00 in
10:32 49.7 °F 39.9 °F 30.32 in South 1.2 mph 1.2 mph 69 % 0.00 in
10:37 50.3 °F 40.5 °F 30.32 in SE 2.3 mph 2.3 mph 69 % 0.00 in
10:42 50.6 °F 40.4 °F 30.31 in East 1.2 mph   68 % 0.00 in
10:47 50.9 °F 40.7 °F 30.31 in East 3.5 mph 3.5 mph 68 % 0.00 in
10:57 51.1 °F 40.1 °F 30.31 in NW 3.5 mph 3.5 mph 66 % 0.00 in
11:02 51.1 °F 40.5 °F 30.31 in SSE 2.3 mph   67 % 0.00 in
11:07 51.7 °F 41.1 °F 30.31 in NNW 1.2 mph 1.2 mph 67 % 0.00 in
11:12 51.9 °F 40.5 °F 30.30 in SSW 1.2 mph   65 % 0.00 in
11:17 52.3 °F 40.5 °F 30.30 in NW 2.3 mph 2.3 mph 64 % 0.00 in
11:22 52.4 °F 41.0 °F 30.30 in WNW 1.2 mph 1.2 mph 65 % 0.00 in
11:27 52.5 °F 40.7 °F 30.29 in NNW 1.2 mph 1.2 mph 64 % 0.00 in
11:32 52.9 °F 41.0 °F 30.29 in NNW 2.3 mph 2.3 mph 64 % 0.00 in
11:37 53.1 °F 41.2 °F 30.29 in SSE 2.3 mph 2.3 mph 64 % 0.00 in
11:42 53.3 °F 41.0 °F 30.28 in SSW 3.5 mph 3.5 mph 63 % 0.00 in
11:47 53.5 °F 41.2 °F 30.28 in NNW 1.2 mph 1.2 mph 63 % 0.00 in
11:52 53.6 °F 41.3 °F 30.28 in South 2.3 mph 2.3 mph 63 % 0.00 in
11:57 54.1 °F 41.8 °F 30.28 in South 1.2 mph 1.2 mph 63 % 0.00 in
12:02 54.3 °F 41.6 °F 30.28 in SSE 2.3 mph 2.3 mph 62 % 0.00 in
12:07 54.4 °F 41.6 °F 30.28 in SSE 2.3 mph 2.3 mph 62 % 0.00 in
12:12 54.8 °F 41.6 °F 30.27 in SSE 3.5 mph 3.5 mph 61 % 0.00 in
12:17 55.0 °F 41.8 °F 30.27 in East 1.2 mph 1.2 mph 61 % 0.00 in
12:22 55.3 °F 42.1 °F 30.27 in WSW 1.2 mph   61 % 0.00 in
12:27 55.3 °F 42.1 °F 30.27 in West 1.0 mph   61 % 0.00 in
12:32 55.3 °F 41.6 °F 30.27 in East 1.0 mph   60 % 0.00 in
12:37 55.5 °F 41.4 °F 30.27 in NW 3.5 mph 3.5 mph 59 % 0.00 in
12:42 55.4 °F 42.2 °F 30.26 in Calm     61 % 0.00 in
12:47 55.7 °F 41.6 °F 30.26 in Calm   0.2 mph 59 % 0.00 in
12:52 56.0 °F 41.9 °F 30.26 in South 1.2 mph 1.2 mph 59 % 0.00 in
12:57 56.1 °F 42.0 °F 30.25 in NW 2.3 mph 2.3 mph 59 % 0.00 in
13:02 55.9 °F 41.8 °F 30.25 in WNW 1.2 mph 1.2 mph 59 % 0.00 in
13:08 56.0 °F 41.9 °F 30.25 in WNW 1.2 mph 1.2 mph 59 % 0.00 in
13:13 56.3 °F 42.1 °F 30.25 in West 1.2 mph   59 % 0.00 in
13:18 56.5 °F 41.9 °F 30.24 in West 1.2 mph   58 % 0.00 in
13:23 56.8 °F 42.2 °F 30.24 in Calm     58 % 0.00 in
13:28 57.4 °F 42.7 °F 30.24 in Calm     58 % 0.00 in
13:33 58.0 °F 43.3 °F 30.24 in Calm     58 % 0.00 in
13:38 58.4 °F 42.3 °F 30.24 in SE 1.2 mph 1.2 mph 55 % 0.00 in
13:43 58.6 °F 42.5 °F 30.24 in SSE 1.2 mph 1.2 mph 55 % 0.00 in
13:48 58.7 °F 41.6 °F 30.24 in SE 1.2 mph   53 % 0.00 in
13:53 58.5 °F 41.9 °F 30.23 in NW 1.2 mph 1.2 mph 54 % 0.00 in
13:58 58.1 °F 41.0 °F 30.23 in NW 1.2 mph 1.2 mph 53 % 0.00 in
14:03 58.0 °F 41.9 °F 30.23 in Calm     55 % 0.00 in
14:08 58.3 °F 41.7 °F 30.23 in SE 1.2 mph 1.2 mph 54 % 0.00 in
14:13 58.6 °F 41.5 °F 30.23 in WNW 1.2 mph 1.2 mph 53 % 0.00 in
14:18 58.5 °F 40.9 °F 30.23 in SSE 1.2 mph 1.2 mph 52 % 0.00 in
14:23 58.4 °F 40.8 °F 30.23 in NW 2.0 mph 2.0 mph 52 % 0.00 in
14:28 58.2 °F 41.1 °F 30.23 in Calm     53 % 0.00 in
14:33 58.1 °F 41.5 °F 30.23 in NNW 1.2 mph   54 % 0.00 in
14:38 57.8 °F 40.8 °F 30.23 in Calm     53 % 0.00 in
14:43 57.6 °F 40.1 °F 30.23 in NNW 2.3 mph 2.3 mph 52 % 0.00 in
14:48 57.5 °F 40.0 °F 30.23 in ENE 1.2 mph 1.2 mph 52 % 0.00 in
14:58 57.4 °F 40.4 °F 30.23 in Calm     53 % 0.00 in
15:03 57.4 °F 39.9 °F 30.23 in East 1.2 mph 1.2 mph 52 % 0.00 in
15:08 57.4 °F 40.4 °F 30.24 in Calm     53 % 0.00 in
15:13 57.4 °F 40.4 °F 30.24 in Calm     53 % 0.00 in
15:18 57.2 °F 40.2 °F 30.24 in Calm     53 % 0.00 in
15:23 57.1 °F 39.6 °F 30.23 in SSE 1.2 mph 1.2 mph 52 % 0.00 in
15:28 57.0 °F 40.0 °F 30.24 in Calm     53 % 0.00 in
15:33 57.0 °F 40.5 °F 30.24 in Calm     54 % 0.00 in
15:38 56.8 °F 39.8 °F 30.23 in Calm     53 % 0.00 in
15:43 56.7 °F 40.2 °F 30.23 in Calm     54 % 0.00 in
15:48 56.6 °F 40.6 °F 30.24 in Calm     55 % 0.00 in
15:53 56.3 °F 40.8 °F 30.23 in Calm     56 % 0.00 in
15:58 56.1 °F 40.6 °F 30.23 in Calm     56 % 0.00 in
16:03 55.9 °F 40.9 °F 30.23 in Calm     57 % 0.00 in
16:08 55.7 °F 41.1 °F 30.23 in Calm     58 % 0.00 in
16:13 55.5 °F 41.0 °F 30.23 in Calm     58 % 0.00 in
16:18 55.3 °F 41.2 °F 30.23 in Calm     59 % 0.00 in
16:24 55.0 °F 40.5 °F 30.23 in Calm     58 % 0.00 in
16:34 54.1 °F 41.8 °F 30.23 in Calm     63 % 0.00 in
16:39 53.3 °F 41.4 °F 30.23 in Calm     64 % 0.00 in
16:44 52.6 °F 41.6 °F 30.23 in Calm     66 % 0.00 in
16:49 51.9 °F 41.3 °F 30.23 in Calm     67 % 0.00 in
16:54 51.4 °F 40.8 °F 30.23 in Calm     67 % 0.00 in
16:59 51.0 °F 40.8 °F 30.23 in Calm     68 % 0.00 in
17:04 50.5 °F 40.7 °F 30.23 in Calm     69 % 0.00 in
17:09 49.8 °F 40.4 °F 30.23 in Calm     70 % 0.00 in
17:14 49.2 °F 40.6 °F 30.23 in Calm     72 % 0.00 in
17:19 48.5 °F 40.2 °F 30.23 in Calm     73 % 0.00 in
17:24 47.8 °F 39.9 °F 30.24 in Calm     74 % 0.00 in
17:29 47.3 °F 40.1 °F 30.23 in Calm     76 % 0.00 in
17:34 47.0 °F 40.2 °F 30.23 in Calm     77 % 0.00 in
17:39 46.5 °F 39.7 °F 30.23 in Calm     77 % 0.00 in
17:44 46.0 °F 39.9 °F 30.24 in Calm     79 % 0.00 in
17:49 45.9 °F 40.1 °F 30.24 in Calm     80 % 0.00 in
17:54 45.9 °F 39.8 °F 30.24 in Calm     79 % 0.00 in
17:59 45.6 °F 39.5 °F 30.24 in Calm     79 % 0.00 in
18:04 45.2 °F 39.7 °F 30.24 in Calm     81 % 0.00 in
18:09 44.8 °F 39.3 °F 30.24 in Calm     81 % 0.00 in
18:14 44.4 °F 38.9 °F 30.25 in Calm     81 % 0.00 in
18:19 44.1 °F 39.0 °F 30.25 in Calm     82 % 0.00 in
18:24 43.7 °F 38.6 °F 30.25 in Calm     82 % 0.00 in
18:29 43.4 °F 38.6 °F 30.25 in Calm     83 % 0.00 in
18:34 43.0 °F 38.5 °F 30.25 in Calm     84 % 0.00 in
18:39 42.8 °F 38.3 °F 30.25 in Calm     84 % 0.00 in
18:44 42.9 °F 38.4 °F 30.25 in Calm     84 % 0.00 in
18:49 43.0 °F 38.5 °F 30.25 in Calm     84 % 0.00 in
18:54 42.9 °F 38.4 °F 30.25 in Calm     84 % 0.00 in
18:59 42.6 °F 38.1 °F 30.25 in Calm     84 % 0.00 in
19:04 42.4 °F 38.2 °F 30.25 in Calm     85 % 0.00 in
19:10 42.3 °F 38.4 °F 30.25 in Calm     86 % 0.00 in
19:15 42.2 °F 38.0 °F 30.26 in Calm     85 % 0.00 in
19:20 42.1 °F 38.2 °F 30.26 in Calm     86 % 0.00 in
19:25 41.9 °F 38.0 °F 30.26 in Calm     86 % 0.00 in
19:30 41.7 °F 37.8 °F 30.25 in Calm     86 % 0.00 in
19:35 41.4 °F 37.2 °F 30.26 in Calm     85 % 0.00 in
19:40 41.1 °F 37.2 °F 30.26 in Calm     86 % 0.00 in
19:45 40.7 °F 36.8 °F 30.26 in Calm     86 % 0.00 in
19:50 40.6 °F 37.3 °F 30.26 in Calm     88 % 0.00 in
19:55 40.5 °F 37.2 °F 30.26 in Calm     88 % 0.00 in
20:00 40.6 °F 37.3 °F 30.26 in Calm     88 % 0.00 in
20:05 40.6 °F 37.3 °F 30.26 in Calm     88 % 0.00 in
20:10 40.5 °F 37.2 °F 30.26 in Calm     88 % 0.00 in
20:15 40.2 °F 36.6 °F 30.26 in Calm     87 % 0.00 in
20:20 40.0 °F 36.4 °F 30.26 in Calm     87 % 0.00 in
20:25 39.7 °F 36.4 °F 30.26 in Calm     88 % 0.00 in
20:30 39.9 °F 36.6 °F 30.26 in Calm     88 % 0.00 in
20:35 39.9 °F 36.6 °F 30.26 in Calm     88 % 0.00 in
20:40 39.5 °F 36.0 °F 30.26 in Calm     87 % 0.00 in
20:45 38.9 °F 35.4 °F 30.26 in Calm     87 % 0.00 in
20:50 38.5 °F 35.0 °F 30.26 in Calm     87 % 0.00 in
20:55 38.1 °F 34.6 °F 30.27 in Calm     87 % 0.00 in
21:00 37.9 °F 34.7 °F 30.27 in Calm     88 % 0.00 in
21:05 37.7 °F 34.5 °F 30.27 in Calm     88 % 0.00 in
21:10 37.3 °F 34.1 °F 30.27 in Calm     88 % 0.00 in
21:15 37.3 °F 34.1 °F 30.27 in Calm     88 % 0.00 in
21:20 37.3 °F 34.4 °F 30.28 in Calm     89 % 0.00 in
21:25 37.3 °F 34.6 °F 30.28 in Calm     90 % 0.00 in
21:30 37.2 °F 34.3 °F 30.28 in Calm     89 % 0.00 in
21:35 37.1 °F 34.4 °F 30.28 in Calm     90 % 0.00 in
21:40 37.1 °F 34.4 °F 30.28 in Calm     90 % 0.00 in
21:45 36.9 °F 34.2 °F 30.28 in Calm     90 % 0.00 in
21:50 37.4 °F 35.3 °F 30.28 in Calm     92 % 0.00 in
21:55 37.7 °F 35.3 °F 30.28 in Calm     91 % 0.00 in
22:00 37.8 °F 35.1 °F 30.28 in Calm     90 % 0.00 in
22:05 37.7 °F 35.0 °F 30.28 in Calm     90 % 0.00 in
22:10 37.5 °F 34.8 °F 30.29 in Calm     90 % 0.00 in
22:15 37.3 °F 34.6 °F 30.29 in Calm     90 % 0.00 in
22:18 37.3 °F 34.6 °F 30.29 in Calm     90 % 0.00 in
22:23 37.0 °F 34.3 °F 30.29 in Calm     90 % 0.00 in
22:28 36.6 °F 33.7 °F 30.29 in Calm     89 % 0.00 in
22:33 36.3 °F 33.6 °F 30.29 in Calm     90 % 0.00 in
22:38 36.1 °F 33.5 °F 30.29 in Calm     90 % 0.00 in
22:43 36.1 °F 33.7 °F 30.30 in Calm     91 % 0.00 in
22:48 36.1 °F 33.7 °F 30.30 in Calm     91 % 0.00 in
22:53 36.3 °F 34.2 °F 30.30 in Calm     92 % 0.00 in
22:58 36.3 °F 34.2 °F 30.30 in Calm     92 % 0.00 in
23:03 36.3 °F 34.2 °F 30.30 in Calm     92 % 0.00 in
23:08 36.2 °F 33.8 °F 30.30 in Calm     91 % 0.00 in
23:18 35.8 °F 33.2 °F 30.30 in Calm     90 % 0.00 in
23:23 35.6 °F 33.2 °F 30.30 in Calm     91 % 0.00 in
23:28 35.4 °F 33.0 °F 30.30 in Calm     91 % 0.00 in
23:33 35.3 °F 32.9 °F 30.30 in Calm     91 % 0.00 in
23:38 35.2 °F 32.8 °F 30.30 in Calm     91 % 0.00 in
23:43 35.0 °F 32.6 °F 30.30 in Calm     91 % 0.00 in
23:48 34.2 °F 31.3 °F 30.31 in Calm     89 % 0.00 in
23:53 33.9 °F 31.3 °F 30.30 in Calm     90 % 0.00 in
23:58 33.8 °F 31.2 °F 30.31 in Calm     90 % 0.00 in
Park Place, Exeter, Tulare County, California, USA
Compliments of Weather Underground - 2.75 mb